Latest Weather Observations for Woomera

IDS60801

Issued at 3:31 pm CDT Tuesday 10 December 2019 (issued every 10 minutes, with the page automatically refreshed every 10 minutes)

About weather observations | Map of weather stations | Latest weather observations for SA | Other Formats
Station Details ID: 016001 Name: WOOMERA AERODROME Lat: -31.16 Lon: 136.81 Height: 166.6 m
Data from the previous 72 hours. | See also: Recent months at Woomera
Date/Time
CDT
Temp
°C
App
Temp
°C
Dew
Point
°C
Rel
Hum
%
Delta-T
°C
Wind Press
QNH
hPa
Press
MSL
hPa
Rain since
9am
mm
Dir  Spd
km/h
Gust
km/h
Spd
kts
Gust
kts
10/03:30pm 33.5 28.9 8.2 21 14.2 S 22 33 12 18 1015.3 1014.5 0.0
10/03:00pm 33.0 28.3 9.1 23 13.6 SSW 24 39 13 21 1015.5 1014.7 0.0
10/02:30pm 32.3 27.6 9.2 24 13.1 S 24 33 13 18 1015.8 1015.0 0.0
10/02:00pm 31.7 28.0 9.3 25 12.7 S 19 30 10 16 1016.5 1015.7 0.0
10/01:30pm 31.6 27.8 9.8 26 12.4 S 20 35 11 19 1017.0 1016.2 0.0
10/01:00pm 30.2 26.4 9.7 28 11.6 SSW 20 30 11 16 1017.2 1016.4 0.0
10/12:30pm 30.5 26.5 10.5 29 11.5 S 22 33 12 18 1017.5 1016.6 0.0
10/12:00pm 28.4 24.1 10.6 33 10.1 SSE 24 33 13 18 1017.8 1016.9 0.0
10/11:30am 27.7 23.3 10.4 34 9.8 S 24 35 13 19 1018.0 1017.1 0.0
10/11:00am 26.1 21.4 10.7 38 8.7 SSE 26 39 14 21 1018.0 1017.1 0.0
10/10:30am 25.4 20.5 11.2 41 8.1 SSE 28 35 15 19 1018.2 1017.3 0.0
10/10:00am 23.5 18.8 11.9 48 6.6 SSE 28 35 15 19 1018.3 1017.4 0.0
10/09:30am 21.5 16.6 12.4 56 5.2 SSE 30 37 16 20 1018.5 1017.6 0.0
10/09:00am 19.9 15.6 13.1 65 3.9 SSE 28 37 15 20 1018.6 1017.7 0.0
10/08:30am 18.5 13.3 12.7 69 3.3 SSE 32 41 17 22 1018.5 1017.6 0.0
10/08:00am 18.3 13.0 13.0 71 3.0 SSE 33 43 18 23 1018.3 1017.4 0.0
10/07:30am 17.8 14.2 12.9 73 2.8 SSE 24 33 13 18 1018.2 1017.3 0.0
10/07:00am 17.6 12.5 13.1 75 2.5 S 32 43 17 23 1017.7 1016.8 0.0
10/06:30am 17.6 12.9 13.3 76 2.4 S 30 39 16 21 1017.6 1016.7 0.0
10/06:00am 17.9 14.0 13.4 75 2.6 SSE 26 37 14 20 1017.4 1016.5 0.0
10/05:30am 18.3 13.3 13.4 73 2.8 SSE 32 41 17 22 1016.7 1015.9 0.0
10/05:00am 19.0 14.4 13.4 70 3.2 SSE 30 37 16 20 1016.5 1015.7 0.0
10/04:30am 19.8 15.4 13.0 65 3.9 SSE 28 35 15 19 1016.5 1015.7 0.0
10/04:00am 20.6 16.0 12.3 59 4.7 SSE 28 35 15 19 1016.5 1015.7 0.0
10/03:30am 21.5 17.5 11.8 54 5.5 S 24 33 13 18 1016.3 1015.5 0.0
10/03:00am 22.3 18.1 11.1 49 6.2 SSE 24 30 13 16 1016.5 1015.7 0.0
10/02:30am 23.0 18.8 11.1 47 6.7 SSE 24 32 13 17 1016.7 1015.9 0.0
10/02:00am 23.6 19.4 11.0 45 7.1 SSE 24 35 13 19 1016.8 1016.0 0.0
10/01:30am 24.1 19.2 10.0 41 7.8 SSE 26 39 14 21 1017.0 1016.2 0.0
10/01:00am 24.6 19.5 7.7 34 9.0 SSE 24 33 13 18 1017.0 1016.2 0.0
10/12:30am 25.0 19.9 7.6 33 9.3 S 24 33 13 18 1016.8 1016.0 0.0
10/12:00am 25.9 21.4 7.0 30 10.0 S 20 26 11 14 1016.8 1016.0 0.0
 
Date/Time
CDT
Temp
°C
App
Temp
°C
Dew
Point
°C
Rel
Hum
%
Delta-T
°C
Wind Press
QNH
hPa
Press
MSL
hPa
Rain since
9am
mm
Dir  Spd
km/h
Gust
km/h
Spd
kts
Gust
kts
09/11:30pm 26.2 21.7 6.8 29 10.2 S 20 26 11 14 1016.7 1015.9 0.0
09/11:00pm 26.6 22.4 8.1 31 10.0 S 20 24 11 13 1016.5 1015.7 0.0
09/10:30pm 27.2 23.4 9.1 32 10.0 SSE 19 24 10 13 1016.4 1015.6 0.0
09/10:00pm 27.6 22.9 9.4 32 10.1 SE 24 28 13 15 1016.1 1015.3 0.0
09/09:30pm 28.2 24.3 10.9 34 9.9 SSE 22 30 12 16 1015.9 1015.1 0.0
09/09:00pm 29.4 24.8 11.0 32 10.6 SE 26 32 14 17 1015.4 1014.6 0.0
09/08:30pm 30.3 25.8 11.3 31 11.1 SE 26 33 14 18 1015.2 1014.4 0.0
09/08:00pm 30.9 25.4 11.8 31 11.2 SSE 32 41 17 22 1015.1 1014.3 0.0
09/07:30pm 32.4 27.6 11.6 28 12.3 S 28 37 15 20 1014.7 1013.9 0.0
09/07:00pm 33.2 27.1 9.9 24 13.4 S 32 41 17 22 1014.4 1013.6 0.0
09/06:30pm 34.0 27.4 9.9 23 13.9 SSW 35 46 19 25 1014.3 1013.5 0.0
09/06:00pm 34.3 28.1 10.2 23 14.0 S 33 43 18 23 1014.0 1013.2 0.0
09/05:30pm 34.5 27.4 9.7 22 14.3 S 37 48 20 26 1013.9 1013.1 0.0
09/05:00pm 34.0 27.4 9.9 23 13.9 S 35 50 19 27 1014.3 1013.5 0.0
09/04:30pm 34.2 27.2 10.1 23 14.0 SSW 37 48 20 26 1014.5 1013.7 0.0
09/04:00pm 34.4 27.7 9.6 22 14.3 S 35 44 19 24 1014.6 1013.8 0.0
09/03:30pm 33.7 27.0 9.7 23 13.8 S 35 50 19 27 1015.0 1014.2 0.0
09/03:00pm 33.2 26.2 8.6 22 13.9 S 35 46 19 25 1015.2 1014.4 0.0
09/02:30pm 32.9 26.0 9.0 23 13.6 SSW 35 46 19 25 1015.4 1014.6 0.0
09/02:00pm 33.5 26.6 8.9 22 14.0 SSW 35 44 19 24 1015.6 1014.8 0.0
09/01:30pm 34.4 28.1 8.9 21 14.5 SSW 32 46 17 25 1015.4 1014.6 0.0
09/01:00pm 33.0 26.5 9.1 23 13.6 S 33 43 18 23 1015.7 1014.9 0.0
09/12:30pm 33.4 26.9 8.1 21 14.2 SSW 32 43 17 23 1016.0 1015.2 0.0
09/12:00pm 33.4 26.5 7.4 20 14.4 SSW 33 43 18 23 1016.0 1015.2 0.0
09/11:30am 33.4 26.9 8.1 21 14.2 S 32 43 17 23 1016.1 1015.3 0.0
09/11:00am 32.8 26.2 7.6 21 14.0 SSW 32 39 17 21 1015.7 1014.9 0.0
09/10:30am 31.7 25.2 8.0 23 13.2 SSW 32 43 17 23 1015.7 1014.9 0.0
09/10:00am 31.5 24.7 7.9 23 13.1 SSW 33 39 18 21 1015.9 1015.1 0.0
09/09:30am 31.5 25.1 5.1 19 14.0 SSW 28 35 15 19 1015.4 1014.6 0.0
09/09:00am 31.0 24.0 3.9 18 14.0 SSW 30 39 16 21 1015.2 1014.4 0.0
09/08:30am 31.1 24.5 2.3 16 14.5 SW 26 32 14 17 1014.8 1014.0 0.0
09/08:00am 28.9 24.7 1.4 17 13.5 SSW 13 26 7 14 1014.2 1013.4 0.0
09/07:30am 28.4 25.4 1.8 18 13.1 E 7 9 4 5 1013.1 1012.2 0.0
09/07:00am 26.0 22.1 1.3 20 11.8 E 11 13 6 7 1012.9 1012.0 0.0
09/06:30am 25.3 21.4 1.4 21 11.4 ESE 11 15 6 8 1012.5 1011.6 0.0
09/06:00am 26.3 22.0 0.9 19 12.1 SE 13 15 7 8 1012.3 1011.4 0.0
09/05:30am 28.1 23.9 1.6 18 12.9 SE 13 15 7 8 1011.9 1011.0 0.0
09/05:00am 28.0 23.4 1.5 18 12.9 SSE 15 20 8 11 1011.5 1010.6 0.0
09/04:30am 27.2 23.1 2.3 20 12.2 S 13 20 7 11 1011.3 1010.4 0.0
09/04:00am 26.1 22.4 2.1 21 11.7 SW 11 13 6 7 1011.6 1010.7 0.0
09/03:30am 27.2 23.1 2.3 20 12.2 SW 13 19 7 10 1011.5 1010.6 0.0
09/03:00am 27.4 23.2 1.8 19 12.5 SSW 13 15 7 8 1011.6 1010.7 0.0
09/02:30am 28.1 23.5 1.6 18 13.0 SSW 15 19 8 10 1011.7 1010.8 0.0
09/02:00am 28.3 24.4 0.9 17 13.2 SSW 11 15 6 8 1012.1 1011.2 0.0
09/01:30am 28.6 24.7 1.2 17 13.3 SSW 11 15 6 8 1012.2 1011.3 0.0
09/01:00am 28.3 23.9 0.1 16 13.4 W 13 19 7 10 1012.5 1011.6 0.0
09/12:30am 29.7 24.0 0.3 15 14.2 SSW 20 26 11 14 1012.1 1011.2 0.0
09/12:00am 30.0 25.6 -6.3 9 15.7 W 9 13 5 7 1012.4 1011.5 0.0
 
Date/Time
CDT
Temp
°C
App
Temp
°C
Dew
Point
°C
Rel
Hum
%
Delta-T
°C
Wind Press
QNH
hPa
Press
MSL
hPa
Rain since
9am
mm
Dir  Spd
km/h
Gust
km/h
Spd
kts
Gust
kts
08/11:30pm 27.9 22.5 -7.9 9 14.7 WNW 13 20 7 11 1012.4 1011.5 0.0
08/11:00pm 30.6 25.3 -7.4 8 16.2 NNE 13 15 7 8 1011.7 1010.8 0.0
08/10:30pm 31.2 24.8 -6.9 8 16.4 NNE 19 20 10 11 1011.3 1010.4 0.0
08/10:00pm 31.8 25.8 -6.5 8 16.7 NNE 17 20 9 11 1010.7 1009.9 0.0
08/09:30pm 32.6 26.3 -5.9 8 17.1 NE 19 20 10 11 1010.2 1009.4 0.0
08/09:00pm 33.8 27.4 -6.8 7 17.9 NE 19 20 10 11 1010.1 1009.3 0.0
08/08:30pm 35.5 29.2 -5.5 7 18.8 NNE 19 20 10 11 1010.0 1009.2 0.0
08/08:00pm 37.0 31.0 -6.5 6 19.8 NNE 17 19 9 10 1009.8 1009.0 0.0
08/07:30pm 38.7 32.5 -5.3 6 20.7 NNE 19 24 10 13 1009.6 1008.8 0.0
08/07:00pm 39.3 31.8 -4.8 6 20.9 NNE 26 35 14 19 1009.3 1008.5 0.0
08/06:30pm 40.0 33.3 -4.3 6 21.3 N 22 30 12 16 1009.3 1008.5 0.0
08/06:00pm 40.2 33.9 -4.2 6 21.4 N 20 32 11 17 1009.4 1008.6 0.0
08/05:30pm 41.0 34.0 -3.6 6 21.8 NNW 24 35 13 19 1009.5 1008.7 0.0
08/05:00pm 40.6 34.5 -3.9 6 21.6 NNW 19 35 10 19 1009.6 1008.8 0.0
08/04:30pm 40.7 34.6 -3.9 6 21.7 N 19 41 10 22 1009.8 1009.0 0.0
08/04:00pm 40.3 33.2 -4.1 6 21.4 NNW 24 44 13 24 1010.4 1009.6 0.0
08/03:30pm 40.3 33.7 -6.5 5 21.8 N 20 33 11 18 1010.5 1009.7 0.0
08/03:00pm 39.7 32.2 -4.6 6 21.2 N 26 37 14 20 1010.9 1010.1 0.0
08/02:30pm 39.6 32.9 -4.6 6 21.1 N 22 32 12 17 1011.3 1010.4 0.0
08/02:00pm 39.5 31.4 -7.1 5 21.4 N 28 43 15 23 1011.5 1010.6 0.0
08/01:30pm 39.2 31.0 -7.3 5 21.2 N 28 46 15 25 1011.9 1011.0 0.0
08/01:29pm 38.6 30.4 -7.7 5 20.9 N 28 46 15 25 1012.0 1011.1 0.0
08/01:00pm 38.8 30.9 -5.2 6 20.7 N 28 41 15 22 1012.2 1011.3 0.0
08/12:30pm 38.0 29.6 -5.8 6 20.3 N 30 43 16 23 1012.5 1011.6 0.0
08/12:00pm 37.6 28.8 -6.0 6 20.1 N 32 43 17 23 1013.0 1012.1 0.0
08/11:30am 36.9 28.6 -4.5 7 19.4 N 30 43 16 23 1013.3 1012.4 0.0
08/11:00am 35.5 26.2 -5.5 7 18.7 N 35 44 19 24 1013.3 1012.4 0.0
08/10:30am 34.7 26.1 -4.4 8 18.1 NNE 32 43 17 23 1013.3 1012.4 0.0
08/10:00am 32.8 23.1 -5.7 8 17.2 NNE 37 46 20 25 1013.4 1012.5 0.0
08/09:30am 32.0 22.8 -4.8 9 16.6 NNE 35 43 19 23 1013.5 1012.6 0.0
08/09:00am 30.7 21.5 -4.4 10 15.7 NE 35 44 19 24 1013.7 1012.8 0.0
08/08:30am 29.0 20.4 -4.4 11 14.8 NE 32 39 17 21 1013.9 1013.1 0.0
08/08:00am 26.9 20.1 -4.9 12 13.7 NE 22 26 12 14 1013.4 1012.5 0.0
08/07:30am 24.6 18.2 -4.6 14 12.4 ENE 20 26 11 14 1013.0 1012.1 0.0
08/07:00am 23.3 17.1 -4.8 15 11.7 NE 19 24 10 13 1012.7 1011.8 0.0
08/06:30am 21.8 15.7 -4.3 17 10.9 NE 19 22 10 12 1012.4 1011.5 0.0
08/06:00am 20.6 14.9 -3.8 19 10.1 ENE 17 19 9 10 1012.1 1011.2 0.0
08/05:30am 20.4 14.3 -4.0 19 10.1 NE 19 20 10 11 1011.7 1010.8 0.0
08/05:00am 21.2 15.5 -4.0 18 10.5 NE 17 20 9 11 1011.8 1010.9 0.0
08/04:30am 22.2 16.1 -4.0 17 11.0 NE 19 20 10 11 1011.7 1010.8 0.0
08/04:00am 23.4 17.1 -3.8 16 11.6 NE 20 24 11 13 1011.6 1010.7 0.0
08/03:30am 23.7 17.7 -2.8 17 11.5 ENE 19 20 10 11 1011.9 1011.0 0.0
08/03:00am 24.1 17.8 -4.1 15 12.0 ENE 20 22 11 12 1012.1 1011.2 0.0
08/02:30am 24.5 18.4 -3.8 15 12.2 ESE 19 20 10 11 1012.2 1011.3 0.0
08/02:00am 25.1 18.7 -5.2 13 12.8 ESE 20 24 11 13 1012.5 1011.6 0.0
08/01:30am 25.0 18.9 -4.3 14 12.5 E 19 20 10 11 1012.7 1011.8 0.0
08/01:00am 25.7 19.6 -3.8 14 12.8 E 19 20 10 11 1013.1 1012.2 0.0
08/12:30am 26.6 20.5 -4.0 13 13.4 E 19 20 10 11 1013.4 1012.5 0.0
08/12:00am 27.2 21.5 -3.6 13 13.6 E 17 20 9 11 1013.7 1012.8 0.0
 
Date/Time
CDT
Temp
°C
App
Temp
°C
Dew
Point
°C
Rel
Hum
%
Delta-T
°C
Wind Press
QNH
hPa
Press
MSL
hPa
Rain since
9am
mm
Dir  Spd
km/h
Gust
km/h
Spd
kts
Gust
kts
07/11:30pm 28.5 22.4 -3.6 12 14.3 ESE 19 20 10 11 1013.8 1012.9 0.0
07/11:00pm 28.6 23.3 -3.6 12 14.4 SE 15 19 8 10 1013.9 1013.1 0.0
07/10:30pm 29.9 24.2 -3.7 11 15.1 SE 17 19 9 10 1013.7 1012.8 0.0
07/10:00pm 30.0 24.3 -3.6 11 15.2 SE 17 20 9 11 1013.4 1012.5 0.0
07/09:30pm 30.2 25.7 -3.5 11 15.3 SSE 11 13 6 7 1013.2 1012.3 0.0
07/09:00pm 31.8 28.0 -3.5 10 16.2 SE 7 9 4 5 1013.0 1012.1 0.0
07/08:30pm 32.8 28.6 -4.2 9 16.9 SE 9 11 5 6 1012.6 1011.7 0.0
07/08:00pm 34.5 30.2 -4.5 8 18.0 E 9 11 5 6 1012.3 1011.4 0.0
07/07:30pm 35.4 31.6 -5.6 7 18.7 ESE 6 7 3 4 1012.1 1011.2 0.0
07/07:00pm 36.1 32.3 -5.1 7 19.0 ESE 6 11 3 6 1011.7 1010.8 0.0
07/06:30pm 35.7 31.3 -5.4 7 18.8 NNE 9 15 5 8 1011.7 1010.8 0.0
07/06:00pm 35.8 30.3 -5.3 7 18.9 NW 15 20 8 11 1011.6 1010.7 0.0
07/05:30pm 36.2 31.9 -5.0 7 19.1 SW 9 15 5 8 1011.9 1011.0 0.0
07/05:00pm 36.3 31.8 -3.2 8 18.8 WNW 11 22 6 12 1012.1 1011.2 0.0
07/04:30pm 36.3 31.8 -3.2 8 18.8 WNW 11 24 6 13 1012.3 1011.4 0.0
07/04:00pm 36.1 30.5 -3.3 8 18.7 WNW 17 28 9 15 1012.5 1011.6 0.0

Other formats

Comma delimited format used in spreadsheet applications
http://www.bom.gov.au/fwo/IDS60801/IDS60801.94659.axf

JavaScript Object Notation format (JSON) in row-major order
http://www.bom.gov.au/fwo/IDS60801/IDS60801.94659.json

Data quality

Most of these data are generated automatically and are frequently updated. Quality checks on data are not normally performed. It is possible for incorrect values to appear. Refer to information at About Latest Weather Observations and please check the disclaimer before using these data.